createdAt,value
2018-11-21T00:04:19.405Z,17.10
2018-11-21T00:09:21.331Z,16.10
2018-11-21T00:14:23.488Z,16.55
2018-11-21T00:19:26.576Z,16.87
2018-11-21T00:24:45.975Z,15.10
2018-11-21T00:29:57.908Z,16.85
2018-11-21T00:34:59.961Z,16.25
2018-11-21T00:40:02.048Z,16.65
2018-11-21T00:45:05.128Z,16.55
2018-11-21T00:50:07.351Z,17.62
2018-11-21T00:55:09.506Z,18.02
2018-11-21T01:00:12.112Z,17.55
2018-11-21T01:05:17.150Z,17.52
2018-11-21T01:10:22.989Z,16.57
2018-11-21T01:15:24.857Z,17.67
2018-11-21T01:20:26.779Z,18.70
2018-11-21T01:25:28.776Z,19.62
2018-11-21T01:30:30.629Z,17.85
2018-11-21T01:35:32.554Z,17.77
2018-11-21T01:40:34.580Z,17.98
2018-11-21T01:45:36.587Z,18.32
2018-11-21T01:50:38.924Z,17.90
2018-11-21T01:55:40.978Z,19.32
2018-11-21T02:00:43.068Z,18.23
2018-11-21T02:05:45.005Z,19.15
2018-11-21T02:10:46.951Z,19.17
2018-11-21T02:15:48.998Z,19.32
2018-11-21T02:20:52.357Z,19.32
2018-11-21T02:25:54.262Z,18.60
2018-11-21T02:30:56.434Z,17.87
2018-11-21T02:35:58.394Z,18.20
2018-11-21T02:41:00.373Z,17.70
2018-11-21T02:46:02.251Z,17.92
2018-11-21T02:51:04.410Z,19.37
2018-11-21T02:56:06.377Z,18.50
2018-11-21T03:01:08.360Z,17.52
2018-11-21T03:06:10.301Z,19.07
2018-11-21T03:11:12.297Z,19.17
2018-11-21T03:16:14.251Z,18.85
2018-11-21T03:21:16.257Z,19.00
2018-11-21T03:26:18.215Z,18.32
2018-11-21T03:31:20.149Z,18.10
2018-11-21T03:36:22.075Z,17.20
2018-11-21T03:41:25.182Z,19.02
2018-11-21T03:46:30.613Z,19.85
2018-11-21T03:51:32.586Z,19.00
2018-11-21T03:56:34.928Z,18.95
2018-11-21T04:01:37.252Z,19.40
2018-11-21T04:06:39.123Z,19.00
2018-11-21T04:11:41.062Z,18.50
2018-11-21T04:16:42.977Z,19.57
2018-11-21T04:21:44.938Z,19.00
2018-11-21T04:26:47.084Z,19.15
2018-11-21T04:31:49.268Z,19.77
2018-11-21T04:36:51.142Z,19.92
2018-11-21T04:41:53.416Z,19.17
2018-11-21T04:46:55.333Z,19.12
2018-11-21T04:51:57.604Z,18.82
2018-11-21T04:56:59.539Z,18.75
2018-11-21T05:02:01.398Z,18.62
2018-11-21T05:07:03.436Z,18.77
2018-11-21T05:12:05.695Z,18.98
2018-11-21T05:17:07.555Z,18.77
2018-11-21T05:22:09.679Z,19.75
2018-11-21T05:27:11.567Z,18.40
2018-11-21T05:32:13.471Z,17.07
2018-11-21T05:37:15.454Z,18.40
2018-11-21T05:42:17.406Z,19.00
2018-11-21T05:47:19.353Z,19.15
2018-11-21T05:52:21.266Z,18.27
2018-11-21T05:57:23.217Z,17.77
2018-11-21T06:02:25.114Z,17.52
2018-11-21T06:07:26.993Z,17.50
2018-11-21T06:12:28.965Z,16.90
2018-11-21T06:17:30.928Z,17.82
2018-11-21T06:22:32.895Z,16.50
2018-11-21T06:27:34.868Z,17.12
2018-11-21T06:32:36.772Z,17.85
2018-11-21T06:37:39.206Z,16.50
2018-11-21T06:42:51.529Z,18.05
2018-11-21T06:47:53.526Z,17.82
2018-11-21T06:52:56.614Z,16.62
2018-11-21T06:57:58.536Z,16.75
2018-11-21T07:03:00.472Z,17.00
2018-11-21T07:08:02.432Z,16.70
2018-11-21T07:13:10.990Z,17.07
2018-11-21T07:18:08.393Z,18.15
2018-11-21T07:23:10.347Z,17.60
2018-11-21T07:28:13.054Z,16.05
2018-11-21T07:33:14.251Z,16.90
2018-11-21T07:38:16.916Z,17.70
2018-11-21T07:43:18.886Z,16.67
2018-11-21T07:48:20.937Z,16.77
2018-11-21T07:53:22.863Z,17.48
2018-11-21T07:58:25.690Z,16.17
2018-11-21T08:03:35.532Z,17.20
2018-11-21T08:09:12.347Z,16.02
2018-11-21T08:14:33.897Z,15.50
2018-11-21T08:19:55.361Z,17.30
2018-11-21T08:25:17.095Z,16.85
2018-11-21T08:30:19.017Z,16.52
2018-11-21T08:35:21.292Z,15.88
2018-11-21T08:40:23.263Z,15.58
2018-11-21T08:45:25.405Z,17.57
2018-11-21T08:50:27.476Z,16.02
2018-11-21T08:55:29.305Z,16.97
2018-11-21T09:00:31.304Z,15.95
2018-11-21T09:05:33.274Z,16.45
2018-11-21T09:15:36.847Z,15.38
2018-11-21T09:20:38.834Z,15.68
2018-11-21T09:25:40.733Z,15.80
2018-11-21T09:30:42.642Z,16.12
2018-11-21T09:35:44.800Z,14.87
2018-11-21T09:40:46.723Z,15.45
2018-11-21T09:45:48.687Z,14.68
2018-11-21T09:50:51.069Z,14.90
2018-11-21T09:55:53.031Z,14.15
2018-11-21T10:01:31.549Z,14.93
2018-11-21T10:06:36.134Z,13.45
2018-11-21T10:11:38.125Z,14.65
2018-11-21T10:16:40.049Z,13.95
2018-11-21T10:21:42.562Z,14.15
2018-11-21T10:26:44.623Z,13.10
2018-11-21T10:31:46.984Z,14.80
2018-11-21T10:36:49.096Z,14.87
2018-11-21T10:41:50.956Z,13.65
2018-11-21T10:46:53.207Z,15.20
2018-11-21T10:51:55.259Z,14.78
2018-11-21T10:56:57.339Z,13.88
2018-11-21T11:02:17.840Z,13.95
2018-11-21T11:07:39.635Z,13.88
2018-11-21T11:13:03.238Z,14.28
2018-11-21T11:18:21.039Z,13.70
2018-11-21T11:24:00.856Z,14.03
2018-11-21T11:29:25.440Z,14.00
2018-11-21T11:34:46.951Z,14.80
2018-11-21T11:40:11.415Z,12.45
2018-11-21T11:45:31.687Z,11.68
2018-11-21T11:50:56.008Z,11.08
2018-11-21T11:56:16.248Z,10.65
2018-11-21T12:01:36.336Z,11.00
2018-11-21T12:07:04.021Z,9.95
2018-11-21T12:12:40.517Z,10.48
2018-11-21T12:18:08.051Z,10.95
2018-11-21T12:23:32.162Z,11.57
2018-11-21T12:29:02.680Z,10.10
2018-11-21T12:34:30.358Z,9.75
2018-11-21T12:39:40.278Z,10.20
2018-11-21T12:45:00.232Z,10.72
2018-11-21T12:50:33.957Z,10.25
2018-11-21T12:56:01.159Z,9.43
2018-11-21T13:01:11.745Z,9.88
2018-11-21T13:06:27.660Z,9.68
2018-11-21T13:11:48.031Z,10.38
2018-11-21T13:17:12.806Z,9.53
2018-11-21T13:22:32.690Z,9.33
2018-11-21T13:27:54.244Z,9.05
2018-11-21T13:33:18.411Z,9.70
2018-11-21T13:38:42.926Z,9.43
2018-11-21T13:43:59.117Z,8.50
2018-11-21T13:49:23.496Z,9.60
2018-11-21T13:54:48.276Z,8.28
2018-11-21T13:59:50.392Z,8.43
2018-11-21T14:04:52.342Z,8.48
2018-11-21T14:09:54.306Z,8.58
2018-11-21T14:14:56.597Z,7.80
2018-11-21T14:19:58.662Z,8.20
2018-11-21T14:25:00.725Z,8.78
2018-11-21T14:30:03.430Z,9.00
2018-11-21T14:35:08.451Z,9.08
2018-11-21T14:40:12.458Z,9.85
2018-11-21T14:45:16.595Z,9.40
2018-11-21T14:50:23.424Z,9.75
2018-11-21T14:55:25.518Z,10.18
2018-11-21T15:00:27.455Z,9.63
2018-11-21T15:05:29.389Z,10.03
2018-11-21T15:10:34.489Z,10.13
2018-11-21T15:15:37.588Z,9.68
2018-11-21T15:20:39.884Z,10.05
2018-11-21T15:25:42.874Z,9.93
2018-11-21T15:30:46.019Z,10.08
2018-11-21T15:35:48.131Z,10.30
2018-11-21T15:40:50.484Z,10.43
2018-11-21T15:45:55.106Z,11.70
2018-11-21T15:50:58.887Z,10.95
2018-11-21T15:56:01.656Z,11.50
2018-11-21T16:01:04.482Z,11.22
2018-11-21T16:06:07.805Z,11.28
2018-11-21T16:11:10.723Z,10.55
2018-11-21T16:16:13.001Z,10.53
2018-11-21T16:21:16.125Z,11.45
2018-11-21T16:26:19.733Z,10.70
2018-11-21T16:31:21.655Z,11.63
2018-11-21T16:36:27.213Z,10.82
2018-11-21T16:41:25.879Z,11.85
2018-11-21T16:46:27.807Z,10.88
2018-11-21T16:51:29.787Z,11.78
2018-11-21T16:56:31.915Z,11.25
2018-11-21T17:01:34.320Z,11.28
2018-11-21T17:06:36.323Z,11.25
2018-11-21T17:11:38.253Z,11.83
2018-11-21T17:16:40.210Z,11.95
2018-11-21T17:21:42.585Z,11.83
2018-11-21T17:26:44.620Z,12.40
2018-11-21T17:31:46.752Z,11.73
2018-11-21T17:36:50.284Z,13.72
2018-11-21T17:41:52.283Z,12.20
2018-11-21T17:46:54.340Z,12.28
2018-11-21T17:57:06.442Z,12.37
2018-11-21T18:02:09.341Z,13.28
2018-11-21T18:07:11.388Z,11.73
2018-11-21T18:12:13.305Z,12.30
2018-11-21T18:17:15.803Z,12.63
2018-11-21T18:22:18.062Z,12.18
2018-11-21T18:27:20.153Z,12.23
2018-11-21T18:32:22.220Z,12.15
2018-11-21T18:37:24.127Z,11.73
2018-11-21T18:42:26.122Z,13.43
2018-11-21T18:47:28.178Z,13.00
2018-11-21T18:52:30.216Z,13.38
2018-11-21T18:57:54.430Z,12.60
2018-11-21T19:02:56.398Z,12.95
2018-11-21T19:07:58.418Z,13.00
2018-11-21T19:13:00.310Z,13.03
2018-11-21T19:18:02.257Z,12.40
2018-11-21T19:23:04.861Z,13.25
2018-11-21T19:28:07.140Z,13.75
2018-11-21T19:33:09.513Z,13.55
2018-11-21T19:38:11.750Z,13.78
2018-11-21T19:43:13.814Z,13.83
2018-11-21T19:48:15.887Z,13.32
2018-11-21T19:53:17.879Z,13.90
2018-11-21T19:58:20.187Z,16.30
2018-11-21T20:03:22.226Z,14.30
2018-11-21T20:08:24.853Z,14.70
2018-11-21T20:13:26.875Z,16.52
2018-11-21T20:18:28.909Z,16.50
2018-11-21T20:23:30.834Z,17.60
2018-11-21T20:28:49.527Z,24.80
2018-11-21T20:33:51.819Z,18.75
2018-11-21T20:38:53.874Z,18.67
2018-11-21T20:43:57.366Z,19.10
2018-11-21T20:49:11.445Z,17.37
2018-11-21T20:54:12.909Z,18.40
2018-11-21T20:59:15.353Z,19.02
2018-11-21T21:04:17.329Z,26.48
2018-11-21T21:09:19.792Z,18.27
2018-11-21T21:14:23.021Z,19.52
2018-11-21T21:19:26.216Z,20.23
2018-11-21T21:24:29.224Z,19.70
2018-11-21T21:29:31.808Z,20.75
2018-11-21T21:34:34.628Z,22.40
